Aérodrome :
LOGIN :

S'inscrire | Disclaimer

   EN    FR    IT 

 










Légende :    VFR   VFR Marginal   IFR   IFR Intensif   IFR Très Intensif
Visi : 
Plafond : 
>= 8 km
>= 3000ft
5 à 8 km
1000 à 3000 ft
1500m à 5 km
500 à 1000 ft
800 à 1500m
200 à 500 ft
< 800m
< 200 ft
Symboles :   Orages  Brouillard  Fortes neiges  Fortes précipitations  Vent > 20 kt
SIGMETs :   Divers  Orages  Givrage  Turbulence  Onde Orograph.  Cendres Volcan.







- Altitude de l'aérodrome : 1249 ft


ETSN - Neuburg AB

DERNIER METAR :
  • 162130Z 26008KT 3000 SHSN FEW018TCU SCT040 BKN060 01/M00 Q1016 YLO

METARs EXPIRÉS :
  • 162120Z 25007KT 6000 -SHSN FEW021TCU SCT040 BKN060 01/M00 Q1016 WHT
  • 162104Z 25008KT 4000 -SHSN FEW007 SCT023TCU BKN050 01/M00 Q1016 GRN
  • 162020Z 25005KT 9999 FEW010 SCT018 BKN053 01/M01 Q1015 BLU
  • 161940Z 24005KT 9999 FEW010 SCT014 BKN055 01/M01 Q1015 BLU
  • 161920Z 24005KT 9999 FEW011 BKN014 BKN110 01/M01 Q1015 GRN

TAF TAF ETSN
Valide du 16 à 21h jusqu'au 17 à 06h UTC


162020Z 1621/1706 24005KT 9999 NSW FEW020 BKN050
TEMPO 1621/1706 25007KT 3000 SHSN BKN012TCU
PROB30 1621/1623 26010KT 1500 TSSN BKN008CB BY ETGL
Pas de NOTAMs connus pour ce terrain.



MET'MAP, la Météo Aéronautique d'un coup d'oeil ! - Copyright ORBIFLY Décembre 2007 - Disclaimer

ORBIFLY MET'MAP TEAM :

Programmation & Développement : Alexandra Zaïnal
Conception & Développement : Baudouin d'Aumeries
Co-Programmation & Développement : Marc-Olivier Méhu
Soutien technique & logistique : Manuel Goepfert

Contact : metmap@orbifly.com




SOURCES & CREDITS :

   NOAA